createdAt,value
2022-08-19T00:01:55.181Z,26.65
2022-08-19T00:04:26.590Z,25.90
2022-08-19T00:06:53.732Z,23.45
2022-08-19T00:09:22.080Z,23.95
2022-08-19T00:11:49.836Z,21.73
2022-08-19T00:14:17.868Z,25.00
2022-08-19T00:16:46.532Z,22.98
2022-08-19T00:19:14.129Z,22.55
2022-08-19T00:21:40.888Z,26.05
2022-08-19T00:24:09.612Z,26.00
2022-08-19T00:26:37.620Z,27.98
2022-08-19T00:29:06.581Z,26.88
2022-08-19T00:31:33.699Z,25.70
2022-08-19T00:34:00.786Z,24.85
2022-08-19T00:36:29.506Z,24.80
2022-08-19T00:38:56.710Z,26.90
2022-08-19T00:41:25.160Z,26.92
2022-08-19T00:44:02.607Z,27.02
2022-08-19T00:46:30.155Z,25.67
2022-08-19T00:48:58.573Z,28.00
2022-08-19T00:51:28.358Z,27.60
2022-08-19T00:53:57.849Z,29.83
2022-08-19T00:56:27.862Z,28.40
2022-08-19T00:58:57.353Z,30.17
2022-08-19T01:01:24.393Z,28.33
2022-08-19T01:03:57.600Z,26.63
2022-08-19T01:06:27.286Z,27.67
2022-08-19T01:08:56.100Z,30.77
2022-08-19T01:11:22.877Z,27.42
2022-08-19T01:13:51.159Z,29.17
2022-08-19T01:16:20.405Z,28.98
2022-08-19T01:18:50.122Z,28.40
2022-08-19T01:21:28.730Z,26.98
2022-08-19T01:23:55.714Z,30.55
2022-08-19T01:26:25.215Z,27.80
2022-08-19T01:28:57.422Z,29.73
2022-08-19T01:31:32.658Z,27.05
2022-08-19T01:34:01.863Z,27.42
2022-08-19T01:36:36.545Z,26.95
2022-08-19T01:39:06.929Z,26.40
2022-08-19T01:41:34.412Z,29.60
2022-08-19T01:44:17.635Z,26.08
2022-08-19T01:46:48.609Z,28.50
2022-08-19T01:49:18.664Z,29.42
2022-08-19T01:51:45.938Z,28.77
2022-08-19T01:54:23.464Z,30.55
2022-08-19T01:57:03.033Z,35.83
2022-08-19T01:59:31.181Z,34.22
2022-08-19T02:01:58.291Z,39.53
2022-08-19T02:04:26.421Z,34.28
2022-08-19T02:06:53.311Z,35.40
2022-08-19T02:09:20.064Z,41.22
2022-08-19T02:11:46.913Z,41.53
2022-08-19T02:14:14.781Z,41.47
2022-08-19T02:16:41.538Z,41.60
2022-08-19T02:19:08.714Z,43.78
2022-08-19T02:21:35.608Z,47.10
2022-08-19T02:24:03.207Z,41.67
2022-08-19T02:26:30.004Z,47.42
2022-08-19T02:28:57.582Z,47.17
2022-08-19T02:31:25.913Z,43.53
2022-08-19T02:33:56.698Z,47.90
2022-08-19T02:38:55.161Z,43.30
2022-08-19T02:41:32.146Z,46.50
2022-08-19T02:44:28.666Z,40.58
2022-08-19T02:46:52.322Z,41.83
2022-08-19T02:49:19.600Z,41.85
2022-08-19T02:51:47.163Z,43.25
2022-08-19T02:54:15.055Z,45.42
2022-08-19T02:56:43.016Z,43.47
2022-08-19T02:59:11.316Z,43.15
2022-08-19T03:01:41.251Z,39.95
2022-08-19T03:04:10.882Z,40.17
2022-08-19T03:06:39.590Z,40.92
2022-08-19T03:09:06.309Z,46.40
2022-08-19T03:11:33.619Z,46.55
2022-08-19T03:14:01.179Z,45.13
2022-08-19T03:16:47.257Z,43.65
2022-08-19T03:19:16.347Z,42.90
2022-08-19T03:21:45.547Z,50.08
2022-08-19T03:24:13.415Z,46.35
2022-08-19T03:26:46.973Z,49.00
2022-08-19T03:29:14.675Z,45.65
2022-08-19T03:31:57.190Z,46.70
2022-08-19T03:34:29.893Z,46.83
2022-08-19T03:36:59.054Z,52.92
2022-08-19T03:39:26.944Z,48.08
2022-08-19T03:42:33.031Z,52.45
2022-08-19T03:44:45.957Z,50.40
2022-08-19T03:47:17.245Z,48.85
2022-08-19T03:49:44.419Z,50.88
2022-08-19T03:52:11.539Z,50.88
2022-08-19T03:54:39.386Z,51.38
2022-08-19T03:57:10.050Z,51.10
2022-08-19T03:59:38.249Z,51.00
2022-08-19T04:02:10.411Z,49.35
2022-08-19T04:04:44.039Z,55.90
2022-08-19T04:07:13.802Z,49.90
2022-08-19T04:09:40.612Z,51.53
2022-08-19T04:12:08.364Z,47.70
2022-08-19T04:14:35.754Z,54.80
2022-08-19T04:17:05.737Z,52.75
2022-08-19T04:19:34.365Z,52.45
2022-08-19T04:22:01.146Z,49.90
2022-08-19T04:24:28.392Z,57.63
2022-08-19T04:26:55.237Z,51.97
2022-08-19T04:29:26.049Z,56.55
2022-08-19T04:34:24.840Z,60.08
2022-08-19T04:36:53.447Z,66.93
2022-08-19T04:39:45.245Z,61.50
2022-08-19T04:42:31.178Z,56.45
2022-08-19T04:44:59.631Z,68.47
2022-08-19T04:47:47.576Z,65.97
2022-08-19T04:50:14.684Z,60.58
2022-08-19T04:52:44.145Z,63.05
2022-08-19T04:55:12.679Z,58.47
2022-08-19T04:57:41.481Z,65.03
2022-08-19T05:00:10.017Z,65.85
2022-08-19T05:02:37.181Z,65.50
2022-08-19T05:05:04.653Z,63.58
2022-08-19T05:07:31.801Z,65.95
2022-08-19T05:09:59.270Z,61.88
2022-08-19T05:12:29.226Z,66.63
2022-08-19T05:14:58.337Z,62.92
2022-08-19T05:17:29.066Z,65.43
2022-08-19T05:20:17.547Z,66.00
2022-08-19T05:22:47.438Z,64.13
2022-08-19T05:25:19.860Z,62.63
2022-08-19T05:27:47.411Z,65.95
2022-08-19T05:30:14.733Z,62.45
2022-08-19T05:32:43.116Z,70.40
2022-08-19T05:35:10.615Z,67.47
2022-08-19T05:37:37.560Z,67.55
2022-08-19T05:40:05.652Z,64.82
2022-08-19T05:42:32.825Z,62.95
2022-08-19T05:44:59.857Z,66.35
2022-08-19T05:47:26.837Z,63.08
2022-08-19T05:49:53.790Z,63.70
2022-08-19T05:52:25.957Z,63.05
2022-08-19T05:54:56.791Z,68.43
2022-08-19T05:57:25.200Z,66.55
2022-08-19T05:59:52.823Z,66.38
2022-08-19T06:02:29.513Z,64.25
2022-08-19T06:07:23.588Z,64.22
2022-08-19T06:09:59.671Z,54.17
2022-08-19T06:12:35.325Z,66.28
2022-08-19T06:15:14.351Z,59.97
2022-08-19T06:17:42.708Z,69.57
2022-08-19T06:20:14.109Z,67.75
2022-08-19T06:22:43.083Z,60.90
2022-08-19T06:25:10.787Z,62.10
2022-08-19T06:27:48.269Z,62.97
2022-08-19T06:30:25.161Z,64.15
2022-08-19T06:32:52.309Z,60.10
2022-08-19T06:35:19.999Z,61.67
2022-08-19T06:37:47.033Z,65.68
2022-08-19T06:40:14.032Z,60.45
2022-08-19T06:42:46.328Z,65.28
2022-08-19T06:45:21.469Z,58.83
2022-08-19T06:47:56.933Z,60.05
2022-08-19T06:50:25.226Z,62.40
2022-08-19T06:52:52.602Z,59.63
2022-08-19T06:55:20.244Z,63.00
2022-08-19T06:57:47.442Z,64.60
2022-08-19T07:00:14.987Z,64.18
2022-08-19T07:02:48.172Z,67.55
2022-08-19T07:05:20.279Z,67.10
2022-08-19T07:07:47.580Z,69.70
2022-08-19T07:10:14.854Z,64.72
2022-08-19T07:12:42.198Z,71.25
2022-08-19T07:15:11.855Z,72.22
2022-08-19T07:17:39.709Z,72.47
2022-08-19T07:20:09.668Z,72.82
2022-08-19T07:22:41.272Z,67.32
2022-08-19T07:25:10.582Z,78.07
2022-08-19T07:27:39.695Z,76.30
2022-08-19T07:30:12.092Z,75.82
2022-08-19T07:32:39.779Z,71.85
2022-08-19T07:35:07.794Z,73.03
2022-08-19T07:37:37.516Z,68.07
2022-08-19T07:40:06.853Z,70.00
2022-08-19T07:42:33.733Z,70.97
2022-08-19T07:45:00.576Z,71.43
2022-08-19T07:47:47.655Z,66.90
2022-08-19T07:50:20.255Z,73.30
2022-08-19T07:52:49.798Z,67.97
2022-08-19T07:55:41.224Z,71.13
2022-08-19T07:59:22.424Z,69.15
2022-08-19T08:01:52.077Z,70.38
2022-08-19T08:04:38.757Z,71.00
2022-08-19T08:07:35.302Z,64.07
2022-08-19T08:10:08.561Z,68.82
2022-08-19T08:13:08.608Z,63.92
2022-08-19T08:15:42.723Z,61.70
2022-08-19T08:18:12.168Z,66.22
2022-08-19T08:20:39.618Z,60.72
2022-08-19T08:23:27.601Z,60.17
2022-08-19T08:26:03.828Z,62.92
2022-08-19T08:28:30.711Z,59.92
2022-08-19T08:31:00.710Z,59.15
2022-08-19T08:33:36.143Z,65.05
2022-08-19T08:36:05.604Z,59.05
2022-08-19T08:38:39.092Z,58.95
2022-08-19T08:41:20.640Z,60.72
2022-08-19T08:43:51.749Z,62.13
2022-08-19T08:49:37.309Z,52.85
2022-08-19T08:52:42.384Z,59.75
2022-08-19T08:55:20.583Z,63.63
2022-08-19T08:57:56.394Z,60.58
2022-08-19T09:00:30.467Z,58.75
2022-08-19T09:03:04.842Z,56.15
2022-08-19T09:09:11.764Z,57.05
2022-08-19T09:11:57.751Z,59.33
2022-08-19T09:14:50.843Z,56.13
2022-08-19T09:17:21.182Z,54.10
2022-08-19T09:19:54.888Z,58.53
2022-08-19T09:22:25.869Z,52.63
2022-08-19T09:24:55.297Z,56.78
2022-08-19T09:27:35.626Z,58.53
2022-08-19T09:30:29.669Z,54.58
2022-08-19T09:32:58.458Z,51.17
2022-08-19T09:35:29.677Z,52.97
2022-08-19T09:37:59.721Z,55.58
2022-08-19T09:40:30.928Z,50.83
2022-08-19T09:43:33.764Z,49.95
2022-08-19T09:46:02.352Z,45.45
2022-08-19T09:48:29.142Z,43.63
2022-08-19T09:50:56.053Z,46.70
2022-08-19T09:53:25.598Z,46.80
2022-08-19T09:55:53.157Z,46.33
2022-08-19T09:58:24.682Z,42.92
2022-08-19T10:00:54.748Z,46.78
2022-08-19T10:03:22.051Z,42.92
2022-08-19T10:05:55.101Z,46.30
2022-08-19T10:08:26.719Z,41.42
2022-08-19T10:10:54.281Z,40.15
2022-08-19T10:13:24.732Z,40.03
2022-08-19T10:15:53.332Z,37.45
2022-08-19T10:18:22.383Z,36.38
2022-08-19T10:20:52.806Z,36.83
2022-08-19T10:23:21.419Z,37.90
2022-08-19T10:25:49.323Z,42.47
2022-08-19T10:28:16.214Z,38.80
2022-08-19T10:30:46.817Z,37.63
2022-08-19T10:33:14.990Z,42.33
2022-08-19T10:35:42.765Z,39.70
2022-08-19T10:38:28.924Z,36.20
2022-08-19T10:41:07.692Z,39.78
2022-08-19T10:43:38.233Z,40.65
2022-08-19T10:46:16.521Z,40.00
2022-08-19T10:48:44.861Z,41.03
2022-08-19T10:51:31.439Z,42.50
2022-08-19T10:53:59.357Z,39.92
2022-08-19T10:56:46.282Z,38.92
2022-08-19T10:59:14.812Z,38.10
2022-08-19T11:01:44.328Z,38.28
2022-08-19T11:04:14.575Z,38.05
2022-08-19T11:06:44.429Z,38.90
2022-08-19T11:09:12.521Z,44.35
2022-08-19T11:11:42.563Z,37.90
2022-08-19T11:14:11.901Z,39.63
2022-08-19T11:16:40.175Z,41.33
2022-08-19T11:19:09.182Z,38.72
2022-08-19T11:21:39.682Z,38.58
2022-08-19T11:24:13.487Z,41.30
2022-08-19T11:26:41.798Z,39.55
2022-08-19T11:29:14.035Z,39.80
2022-08-19T11:31:46.303Z,42.53
2022-08-19T11:34:17.171Z,39.55
2022-08-19T11:36:46.167Z,40.30
2022-08-19T11:39:16.740Z,45.67
2022-08-19T11:41:43.639Z,39.35
2022-08-19T11:44:10.752Z,42.38
2022-08-19T11:46:38.661Z,39.30
2022-08-19T11:49:13.787Z,42.55
2022-08-19T11:51:43.314Z,38.92
2022-08-19T11:54:10.801Z,41.92
2022-08-19T11:56:38.624Z,37.92
2022-08-19T11:59:05.606Z,39.25
2022-08-19T12:01:32.560Z,39.30
2022-08-19T12:03:59.639Z,40.08
2022-08-19T12:06:33.443Z,38.88
2022-08-19T12:09:07.251Z,38.67
2022-08-19T12:11:34.566Z,36.53
2022-08-19T12:14:02.061Z,37.05
2022-08-19T12:16:31.570Z,37.45
2022-08-19T12:19:04.628Z,40.38
2022-08-19T12:21:33.907Z,40.45
2022-08-19T12:24:02.251Z,43.00
2022-08-19T12:26:32.215Z,47.88
2022-08-19T12:29:00.533Z,41.90
2022-08-19T12:31:31.069Z,38.85
2022-08-19T12:34:03.528Z,40.58
2022-08-19T12:36:30.463Z,39.97
2022-08-19T12:38:59.582Z,41.17
2022-08-19T12:41:27.184Z,44.33
2022-08-19T12:43:54.067Z,43.45
2022-08-19T12:46:22.259Z,35.30
2022-08-19T12:48:56.205Z,36.78
2022-08-19T12:51:23.129Z,37.80
2022-08-19T12:53:50.882Z,38.97
2022-08-19T12:56:22.380Z,37.28
2022-08-19T12:58:50.575Z,37.88
2022-08-19T13:01:22.980Z,35.47
2022-08-19T13:03:51.073Z,33.13
2022-08-19T13:06:19.588Z,33.53
2022-08-19T13:08:47.866Z,33.65
2022-08-19T13:11:21.221Z,36.30
2022-08-19T13:13:50.638Z,34.08
2022-08-19T13:16:18.335Z,31.17
2022-08-19T13:18:48.349Z,29.75
2022-08-19T13:21:15.457Z,31.63
2022-08-19T13:23:42.804Z,29.77
2022-08-19T13:26:11.598Z,33.08
2022-08-19T13:28:58.508Z,32.75
2022-08-19T13:31:46.958Z,28.83
2022-08-19T13:34:14.391Z,27.65
2022-08-19T13:36:41.261Z,28.60
2022-08-19T13:39:09.881Z,31.58
2022-08-19T13:41:37.535Z,30.05
2022-08-19T13:44:07.376Z,30.30
2022-08-19T13:46:34.287Z,29.67
2022-08-19T13:49:01.007Z,29.05
2022-08-19T13:51:28.181Z,27.92
2022-08-19T13:53:56.222Z,29.17
2022-08-19T13:56:26.004Z,29.52
2022-08-19T13:58:54.515Z,27.33
2022-08-19T14:01:25.292Z,30.23
2022-08-19T14:03:52.476Z,30.55
2022-08-19T14:06:19.889Z,31.33
2022-08-19T14:08:46.996Z,31.50
2022-08-19T14:11:14.217Z,31.17
2022-08-19T14:13:41.550Z,33.58
2022-08-19T14:16:13.388Z,31.90
2022-08-19T14:18:42.777Z,32.60
2022-08-19T14:21:18.337Z,31.33
2022-08-19T14:23:45.871Z,30.52
2022-08-19T14:26:15.724Z,31.35
2022-08-19T14:28:43.633Z,32.17
2022-08-19T14:31:12.065Z,36.17
2022-08-19T14:33:38.783Z,34.83
2022-08-19T14:36:06.521Z,34.63
2022-08-19T14:38:33.756Z,37.35
2022-08-19T14:41:14.029Z,39.05
2022-08-19T14:43:40.911Z,38.83
2022-08-19T14:46:09.058Z,32.80
2022-08-19T14:48:39.362Z,36.58
2022-08-19T14:51:09.098Z,38.30
2022-08-19T14:53:36.350Z,36.70
2022-08-19T14:56:09.976Z,39.38
2022-08-19T14:58:39.089Z,40.97
2022-08-19T15:01:06.081Z,41.50
2022-08-19T15:03:33.154Z,42.72
2022-08-19T15:06:02.213Z,42.72
2022-08-19T15:08:30.543Z,44.20
2022-08-19T15:10:59.117Z,43.20
2022-08-19T15:13:28.717Z,43.50
2022-08-19T15:15:56.547Z,46.00
2022-08-19T15:18:23.411Z,41.60
2022-08-19T15:20:50.555Z,44.95
2022-08-19T15:23:20.476Z,52.40
2022-08-19T15:25:47.239Z,48.85
2022-08-19T15:28:14.002Z,51.72
2022-08-19T15:30:41.720Z,53.35
2022-08-19T15:33:08.517Z,55.92
2022-08-19T15:35:35.290Z,47.10
2022-08-19T15:38:02.083Z,46.63
2022-08-19T15:40:28.839Z,48.85
2022-08-19T15:42:56.922Z,45.53
2022-08-19T15:45:32.877Z,45.95
2022-08-19T15:48:02.998Z,46.67
2022-08-19T15:50:35.703Z,46.88
2022-08-19T15:53:09.300Z,50.13
2022-08-19T15:55:42.156Z,50.40
2022-08-19T15:58:30.831Z,52.17
2022-08-19T16:01:20.847Z,54.17
2022-08-19T16:04:14.591Z,52.28
2022-08-19T16:06:55.465Z,54.47
2022-08-19T16:09:29.137Z,55.67
2022-08-19T16:12:01.694Z,57.00
2022-08-19T16:14:32.104Z,56.70
2022-08-19T16:16:58.898Z,52.92
2022-08-19T16:19:25.947Z,57.17
2022-08-19T16:21:55.419Z,57.92
2022-08-19T16:24:26.384Z,56.45
2022-08-19T16:26:54.625Z,60.70
2022-08-19T16:29:33.452Z,61.53
2022-08-19T16:32:10.678Z,60.15
2022-08-19T16:34:39.154Z,57.65
2022-08-19T16:37:06.359Z,65.80
2022-08-19T16:39:33.091Z,59.75
2022-08-19T16:41:59.883Z,63.95
2022-08-19T16:44:29.448Z,57.65
2022-08-19T16:46:59.188Z,64.68
2022-08-19T16:49:53.817Z,61.90
2022-08-19T16:52:16.125Z,60.42
2022-08-19T16:54:43.934Z,68.40
2022-08-19T16:57:12.358Z,65.55
2022-08-19T16:59:42.475Z,67.35
2022-08-19T17:02:18.442Z,59.78
2022-08-19T17:04:57.468Z,61.72
2022-08-19T17:07:27.701Z,68.85
2022-08-19T17:10:03.961Z,61.92
2022-08-19T17:12:32.377Z,65.18
2022-08-19T17:15:01.299Z,69.00
2022-08-19T17:17:29.468Z,65.45
2022-08-19T17:19:57.623Z,60.35
2022-08-19T17:22:24.308Z,65.70
2022-08-19T17:24:51.125Z,58.45
2022-08-19T17:27:19.824Z,64.15
2022-08-19T17:29:47.263Z,60.00
2022-08-19T17:32:15.321Z,57.60
2022-08-19T17:34:42.248Z,59.40
2022-08-19T17:37:10.354Z,50.95
2022-08-19T17:39:39.961Z,57.92
2022-08-19T17:42:08.037Z,54.13
2022-08-19T17:44:36.697Z,54.38
2022-08-19T17:47:04.519Z,51.83
2022-08-19T17:49:33.240Z,53.50
2022-08-19T17:52:00.686Z,51.80
2022-08-19T17:54:32.381Z,43.67
2022-08-19T17:57:01.302Z,41.30
2022-08-19T17:59:29.925Z,39.17
2022-08-19T18:01:57.690Z,48.92
2022-08-19T18:04:26.297Z,47.40
2022-08-19T18:06:56.509Z,47.58
2022-08-19T18:09:38.609Z,50.25
2022-08-19T18:12:13.588Z,53.90
2022-08-19T18:14:42.092Z,50.10
2022-08-19T18:17:12.070Z,51.20
2022-08-19T18:19:42.021Z,48.22
2022-08-19T18:22:31.669Z,54.22
2022-08-19T18:24:59.389Z,52.60
2022-08-19T18:27:27.737Z,51.85
2022-08-19T18:29:59.461Z,57.88
2022-08-19T18:32:32.708Z,57.35
2022-08-19T18:35:04.791Z,48.38
2022-08-19T18:37:31.429Z,50.08
2022-08-19T18:40:16.615Z,55.25
2022-08-19T18:43:04.086Z,57.20
2022-08-19T18:45:49.930Z,51.83
2022-08-19T18:48:35.627Z,53.38
2022-08-19T18:51:02.436Z,55.17
2022-08-19T18:53:31.900Z,53.13
2022-08-19T18:55:59.562Z,51.72
2022-08-19T18:58:34.170Z,54.08
2022-08-19T19:01:11.610Z,51.42
2022-08-19T19:06:09.233Z,48.60
2022-08-19T19:08:38.879Z,43.83
2022-08-19T19:11:06.168Z,46.35
2022-08-19T19:13:33.814Z,47.95
2022-08-19T19:16:04.355Z,48.63
2022-08-19T19:18:31.730Z,47.83
2022-08-19T19:20:58.626Z,44.45
2022-08-19T19:23:25.766Z,45.50
2022-08-19T19:25:52.791Z,48.95
2022-08-19T19:28:28.026Z,43.65
2022-08-19T19:30:58.456Z,46.47
2022-08-19T19:33:26.872Z,47.88
2022-08-19T19:35:53.951Z,46.00
2022-08-19T19:38:20.861Z,42.50
2022-08-19T19:40:47.861Z,48.67
2022-08-19T19:43:18.300Z,45.08
2022-08-19T19:45:46.539Z,41.58
2022-08-19T19:48:16.454Z,43.58
2022-08-19T19:50:44.883Z,43.10
2022-08-19T19:53:13.126Z,42.35
2022-08-19T19:55:54.804Z,40.25
2022-08-19T19:58:28.594Z,45.65
2022-08-19T20:00:56.504Z,45.78
2022-08-19T20:03:23.381Z,43.60
2022-08-19T20:05:50.619Z,45.85
2022-08-19T20:08:36.090Z,48.05
2022-08-19T20:11:04.997Z,45.83
2022-08-19T20:13:32.901Z,45.00
2022-08-19T20:15:59.912Z,45.08
2022-08-19T20:18:26.615Z,46.22
2022-08-19T20:20:53.439Z,44.45
2022-08-19T20:23:22.824Z,46.08
2022-08-19T20:25:51.284Z,44.55
2022-08-19T20:28:18.259Z,45.03
2022-08-19T20:30:46.632Z,44.58
2022-08-19T20:33:14.900Z,52.05
2022-08-19T20:35:43.585Z,40.03
2022-08-19T20:38:10.723Z,41.45
2022-08-19T20:40:39.273Z,44.03
2022-08-19T20:43:13.498Z,48.72
2022-08-19T20:45:40.513Z,45.70
2022-08-19T20:48:10.314Z,45.10
2022-08-19T20:50:37.173Z,47.25
2022-08-19T20:53:16.314Z,51.75
2022-08-19T20:55:45.186Z,47.50
2022-08-19T20:58:13.521Z,51.97
2022-08-19T21:00:46.013Z,49.22
2022-08-19T21:03:17.076Z,44.47
2022-08-19T21:05:46.328Z,48.97
2022-08-19T21:08:14.580Z,47.88
2022-08-19T21:10:42.484Z,45.30
2022-08-19T21:13:09.406Z,47.17
2022-08-19T21:15:39.516Z,48.38
2022-08-19T21:18:07.849Z,46.35
2022-08-19T21:20:34.673Z,45.20
2022-08-19T21:23:06.444Z,50.65
2022-08-19T21:25:33.542Z,52.13
2022-08-19T21:28:00.428Z,51.03
2022-08-19T21:30:28.149Z,53.47
2022-08-19T21:32:55.235Z,49.65
2022-08-19T21:35:23.691Z,46.60
2022-08-19T21:37:51.386Z,49.05
2022-08-19T21:40:19.146Z,53.78
2022-08-19T21:42:46.988Z,50.65
2022-08-19T21:45:15.031Z,46.28
2022-08-19T21:47:41.718Z,48.63
2022-08-19T21:50:09.565Z,52.47
2022-08-19T21:52:37.163Z,56.58
2022-08-19T21:55:05.245Z,53.85
2022-08-19T21:57:31.992Z,48.28
2022-08-19T21:59:58.709Z,50.00
2022-08-19T22:02:25.507Z,52.28
2022-08-19T22:04:53.294Z,51.25
2022-08-19T22:07:21.591Z,57.97
2022-08-19T22:09:50.666Z,52.97
2022-08-19T22:12:27.761Z,59.45
2022-08-19T22:14:56.445Z,56.08
2022-08-19T22:17:24.322Z,56.95
2022-08-19T22:19:52.560Z,62.95
2022-08-19T22:22:24.864Z,60.28
2022-08-19T22:24:52.734Z,57.00
2022-08-19T22:27:20.643Z,55.00
2022-08-19T22:29:47.635Z,61.10
2022-08-19T22:32:28.598Z,66.50
2022-08-19T22:34:58.185Z,63.80
2022-08-19T22:37:26.223Z,63.42
2022-08-19T22:39:53.038Z,58.20
2022-08-19T22:42:20.998Z,63.30
2022-08-19T22:44:48.037Z,64.53
2022-08-19T22:47:15.415Z,63.17
2022-08-19T22:49:42.190Z,64.30
2022-08-19T22:52:17.353Z,59.92
2022-08-19T22:54:50.272Z,60.55
2022-08-19T22:57:19.531Z,60.75
2022-08-19T22:59:48.495Z,60.58
2022-08-19T23:02:23.352Z,58.22
2022-08-19T23:04:51.397Z,72.88
2022-08-19T23:07:19.783Z,64.97
2022-08-19T23:09:51.077Z,69.22
2022-08-19T23:12:27.826Z,68.75
2022-08-19T23:14:54.768Z,69.35
2022-08-19T23:17:22.075Z,70.95
2022-08-19T23:19:50.617Z,76.25
2022-08-19T23:22:18.559Z,69.40
2022-08-19T23:24:45.455Z,75.00
2022-08-19T23:27:31.038Z,71.95
2022-08-19T23:30:16.864Z,79.60
2022-08-19T23:32:45.935Z,72.57
2022-08-19T23:35:13.025Z,72.70
2022-08-19T23:37:39.840Z,69.68
2022-08-19T23:40:08.551Z,68.15
2022-08-19T23:42:35.549Z,71.38
2022-08-19T23:45:07.235Z,74.82
2022-08-19T23:47:35.630Z,65.80
2022-08-19T23:50:06.315Z,69.25
2022-08-19T23:52:34.955Z,69.50
2022-08-19T23:55:03.578Z,75.68
2022-08-19T23:57:31.121Z,71.53
2022-08-19T23:59:58.656Z,69.72
